34IL weather

G. Bray Airport
Lewistown, Illinois, United States

Public forecast

Using degrees Fahrenheit for public forecast. Weather courtesy of forecast.io.

Closest aviation weather report (METAR) to G. Bray Airport

Closest report is General Wayne A. Downing Peoria International Airport, 26.2 nm (48.6 km) NE. Retrieved 2020/07/04 16:54 UTC (48 minutes ago):

KPIA 041654Z 32004KT 10SM BKN055 BKN080 31/18 A3004 RMK AO2 SLP165 T03110178

Closest aviation forecast (TAF) to G. Bray Airport

Closest forecast is General Wayne A. Downing Peoria International Airport, 26.2 nm (48.6 km) NE. Retrieved 2020/07/04 12:22 UTC (5 hours ago):

TAF KPIA 041120Z 0412/0512 05005KT P6SM SCT250 FM041600 05005KT P6SM SCT045 FM050000 06003KT P6SM FEW150